Aviation Digital Data Service (ADDS)

Output produced by METARs form (2132 UTC 01 December 2021)
found at http://aviationweather.gov/metar/data/
 
KHKS 012053Z 24009KT 10SM CLR 23/09 A3006 RMK AO2 SLP173 T02330094 56025
KHKS 011732Z 0118/0218 21013G18KT P6SM SKC 
     FM012200 22005KT P6SM SKC